AVA9251 SKCG-SKBO
Flight info
| Callsign | AVA9251 |
|---|---|
| Flight time | 1h 7m |
| Altitude | 37000 |
| Route | ILMIK2A AKPEK UQ121 ISVAT ISVAT5W |
| Aircraft | A320/M-SDE3FGHIRWY/LB1 |
Departure
| Time | 2026-04-20 00:47 |
|---|---|
| Airport | Rafael Nuñez International Airport (SKCG) |
Arrival
| Time | 2026-04-20 01:54 |
|---|---|
| Airport | El Dorado International Airport (SKBO) |
| Time | Latitude | Longitude | Altitude | Speed | Heading |
|---|---|---|---|---|---|
| 2026-04-20 00:21 | 10.44642 | -75.51548 | 51 ft | 0 kts | 272° |
| 2026-04-20 00:40 | 10.44641 | -75.51529 | 51 ft | 3 kts | 272° |
| 2026-04-20 00:40 | 10.44640 | -75.51510 | 51 ft | 3 kts | 272° |
| 2026-04-20 00:40 | 10.44640 | -75.51490 | 51 ft | 3 kts | 275° |
| 2026-04-20 00:40 | 10.44634 | -75.51471 | 48 ft | 3 kts | 311° |
| 2026-04-20 00:41 | 10.44619 | -75.51459 | 50 ft | 3 kts | 348° |
| 2026-04-20 00:41 | 10.44599 | -75.51457 | 51 ft | 3 kts | 359° |
| 2026-04-20 00:41 | 10.44590 | -75.51457 | 51 ft | 0 kts | 359° |
| 2026-04-20 00:42 | 10.44591 | -75.51457 | 51 ft | 1 kts | 359° |
| 2026-04-20 00:42 | 10.44626 | -75.51436 | 51 ft | 8 kts | 58° |
| 2026-04-20 00:42 | 10.44638 | -75.51381 | 51 ft | 7 kts | 81° |
| 2026-04-20 00:43 | 10.44648 | -75.51336 | 51 ft | 6 kts | 88° |
| 2026-04-20 00:43 | 10.44642 | -75.51300 | 49 ft | 4 kts | 117° |
| 2026-04-20 00:43 | 10.44589 | -75.51278 | 51 ft | 11 kts | 179° |
| 2026-04-20 00:43 | 10.44517 | -75.51277 | 51 ft | 10 kts | 179° |
| 2026-04-20 00:44 | 10.44452 | -75.51280 | 48 ft | 9 kts | 185° |
| 2026-04-20 00:44 | 10.44394 | -75.51285 | 51 ft | 8 kts | 181° |
| 2026-04-20 00:44 | 10.44336 | -75.51286 | 51 ft | 13 kts | 181° |
| 2026-04-20 00:44 | 10.44123 | -75.51295 | 51 ft | 44 kts | 183° |
| 2026-04-20 00:45 | 10.43810 | -75.51309 | 51 ft | 45 kts | 182° |
| 2026-04-20 00:45 | 10.43496 | -75.51320 | 51 ft | 45 kts | 182° |
| 2026-04-20 00:45 | 10.43254 | -75.51328 | 51 ft | 19 kts | 174° |
| 2026-04-20 00:45 | 10.43164 | -75.51251 | 51 ft | 16 kts | 139° |
| 2026-04-20 00:46 | 10.43076 | -75.51255 | 51 ft | 13 kts | 249° |
| 2026-04-20 00:46 | 10.43085 | -75.51329 | 49 ft | 10 kts | 324° |
| 2026-04-20 00:46 | 10.43115 | -75.51335 | 51 ft | 0 kts | 1° |
| 2026-04-20 00:46 | 10.43238 | -75.51329 | 51 ft | 54 kts | 2° |
| 2026-04-20 00:47 | 10.43855 | -75.51305 | 51 ft | 120 kts | 2° |
| 2026-04-20 00:47 | 10.44843 | -75.51261 | 267 ft | 148 kts | 2° |
| 2026-04-20 00:47 | 10.45876 | -75.51213 | 894 ft | 148 kts | 2° |
| 2026-04-20 00:47 | 10.46905 | -75.51173 | 1559 ft | 150 kts | 5° |
| 2026-04-20 00:48 | 10.47984 | -75.51130 | 2080 ft | 164 kts | 3° |
| 2026-04-20 00:48 | 10.49202 | -75.51079 | 2380 ft | 186 kts | 5° |
| 2026-04-20 00:48 | 10.50473 | -75.50647 | 2659 ft | 208 kts | 41° |
| 2026-04-20 00:48 | 10.51146 | -75.49329 | 3136 ft | 220 kts | 85° |
| 2026-04-20 00:49 | 10.50737 | -75.47832 | 3791 ft | 228 kts | 127° |
| 2026-04-20 00:49 | 10.49463 | -75.46875 | 4577 ft | 232 kts | 156° |
| 2026-04-20 00:49 | 10.47930 | -75.46336 | 5348 ft | 235 kts | 164° |
| 2026-04-20 00:49 | 10.46337 | -75.45912 | 6121 ft | 238 kts | 165° |
| 2026-04-20 00:50 | 10.44742 | -75.45486 | 6827 ft | 241 kts | 164° |
| 2026-04-20 00:50 | 10.43119 | -75.45016 | 7609 ft | 242 kts | 163° |
| 2026-04-20 00:50 | 10.41512 | -75.44514 | 8420 ft | 242 kts | 164° |
| 2026-04-20 00:50 | 10.39846 | -75.44286 | 9187 ft | 245 kts | 182° |
| 2026-04-20 00:51 | 10.38076 | -75.44519 | 9517 ft | 268 kts | 189° |
| 2026-04-20 00:51 | 10.36169 | -75.44836 | 9944 ft | 285 kts | 189° |
| 2026-04-20 00:51 | 10.34157 | -75.45165 | 10341 ft | 304 kts | 189° |
| 2026-04-20 00:51 | 10.31981 | -75.45508 | 10559 ft | 327 kts | 188° |
| 2026-04-20 00:52 | 10.30456 | -75.45745 | 10725 ft | 341 kts | 188° |
| 2026-04-20 00:52 | 10.27253 | -75.46241 | 11429 ft | 354 kts | 188° |
| 2026-04-20 00:52 | 10.24798 | -75.46620 | 12058 ft | 359 kts | 188° |
| 2026-04-20 00:52 | 10.22308 | -75.47008 | 12727 ft | 363 kts | 188° |
| 2026-04-20 00:53 | 10.19816 | -75.47396 | 13369 ft | 368 kts | 188° |
| 2026-04-20 00:53 | 10.17262 | -75.47793 | 13968 ft | 372 kts | 188° |
| 2026-04-20 00:53 | 10.14684 | -75.48196 | 14513 ft | 377 kts | 188° |
| 2026-04-20 00:53 | 10.12067 | -75.48605 | 15047 ft | 382 kts | 188° |
| 2026-04-20 00:54 | 10.09421 | -75.49019 | 15574 ft | 387 kts | 188° |
| 2026-04-20 00:54 | 10.06745 | -75.49436 | 16104 ft | 391 kts | 188° |
| 2026-04-20 00:54 | 10.04038 | -75.49857 | 16620 ft | 396 kts | 188° |
| 2026-04-20 00:54 | 10.02229 | -75.50138 | 16966 ft | 399 kts | 188° |
| 2026-04-20 00:55 | 9.99462 | -75.50568 | 17515 ft | 402 kts | 188° |
| 2026-04-20 00:55 | 9.96676 | -75.50999 | 18034 ft | 407 kts | 188° |
| 2026-04-20 00:55 | 9.92910 | -75.51589 | 18661 ft | 412 kts | 188° |
| 2026-04-20 00:55 | 9.91023 | -75.51884 | 18964 ft | 415 kts | 188° |
| 2026-04-20 00:56 | 9.88157 | -75.52328 | 19425 ft | 418 kts | 188° |
| 2026-04-20 00:56 | 9.85271 | -75.52778 | 19906 ft | 422 kts | 188° |
| 2026-04-20 00:56 | 9.82358 | -75.53231 | 20371 ft | 425 kts | 188° |
| 2026-04-20 00:56 | 9.79431 | -75.53689 | 20821 ft | 428 kts | 188° |
| 2026-04-20 00:57 | 9.76462 | -75.54155 | 21257 ft | 432 kts | 188° |
| 2026-04-20 00:57 | 9.73475 | -75.54623 | 21688 ft | 435 kts | 188° |
| 2026-04-20 00:57 | 9.70500 | -75.55087 | 22106 ft | 439 kts | 188° |
| 2026-04-20 00:57 | 9.67469 | -75.55555 | 22523 ft | 442 kts | 188° |
| 2026-04-20 00:58 | 9.64414 | -75.56026 | 22918 ft | 446 kts | 188° |
| 2026-04-20 00:58 | 9.61346 | -75.56502 | 23303 ft | 449 kts | 188° |
| 2026-04-20 00:58 | 9.58251 | -75.56985 | 23652 ft | 452 kts | 188° |
| 2026-04-20 00:58 | 9.55131 | -75.57471 | 23987 ft | 454 kts | 188° |
| 2026-04-20 00:59 | 9.51992 | -75.57960 | 24316 ft | 456 kts | 188° |
| 2026-04-20 00:59 | 9.48849 | -75.58448 | 24677 ft | 457 kts | 188° |
| 2026-04-20 00:59 | 9.45702 | -75.58934 | 25002 ft | 459 kts | 188° |
| 2026-04-20 00:59 | 9.42540 | -75.59422 | 25322 ft | 460 kts | 188° |
| 2026-04-20 01:00 | 9.39366 | -75.59912 | 25632 ft | 462 kts | 188° |
| 2026-04-20 01:00 | 9.36177 | -75.60407 | 25939 ft | 464 kts | 188° |
| 2026-04-20 01:00 | 9.32983 | -75.60900 | 26235 ft | 466 kts | 188° |
| 2026-04-20 01:00 | 9.29767 | -75.61394 | 26555 ft | 468 kts | 188° |
| 2026-04-20 01:01 | 9.26551 | -75.61890 | 26853 ft | 469 kts | 188° |
| 2026-04-20 01:01 | 9.23477 | -75.62368 | 27135 ft | 471 kts | 188° |
| 2026-04-20 01:01 | 9.20391 | -75.62849 | 27409 ft | 473 kts | 188° |
| 2026-04-20 01:01 | 9.17087 | -75.63361 | 27702 ft | 474 kts | 188° |
| 2026-04-20 01:02 | 9.13854 | -75.63864 | 27976 ft | 475 kts | 188° |
| 2026-04-20 01:02 | 9.10586 | -75.64375 | 28243 ft | 477 kts | 188° |
| 2026-04-20 01:02 | 9.07299 | -75.64888 | 28495 ft | 478 kts | 188° |
| 2026-04-20 01:02 | 9.04005 | -75.65397 | 28752 ft | 480 kts | 188° |
| 2026-04-20 01:03 | 9.00696 | -75.65906 | 28968 ft | 481 kts | 188° |
| 2026-04-20 01:03 | 8.97380 | -75.66419 | 29193 ft | 483 kts | 188° |
| 2026-04-20 01:03 | 8.94051 | -75.66933 | 29411 ft | 484 kts | 188° |
| 2026-04-20 01:03 | 8.90715 | -75.67450 | 29615 ft | 485 kts | 188° |
| 2026-04-20 01:04 | 8.87375 | -75.67966 | 29869 ft | 485 kts | 188° |
| 2026-04-20 01:04 | 8.84039 | -75.68481 | 30140 ft | 484 kts | 188° |
| 2026-04-20 01:04 | 8.80716 | -75.68994 | 30404 ft | 483 kts | 189° |
| 2026-04-20 01:04 | 8.77405 | -75.69506 | 30695 ft | 481 kts | 189° |
| 2026-04-20 01:05 | 8.74101 | -75.70017 | 30999 ft | 478 kts | 189° |
| 2026-04-20 01:05 | 8.70818 | -75.70521 | 31313 ft | 476 kts | 189° |
| 2026-04-20 01:05 | 8.67547 | -75.71025 | 31607 ft | 474 kts | 189° |
| 2026-04-20 01:05 | 8.64292 | -75.71526 | 31922 ft | 472 kts | 189° |
| 2026-04-20 01:06 | 8.61063 | -75.72025 | 32230 ft | 470 kts | 189° |
| 2026-04-20 01:06 | 8.57828 | -75.72525 | 32540 ft | 468 kts | 189° |
| 2026-04-20 01:06 | 8.54652 | -75.73017 | 32851 ft | 467 kts | 189° |
| 2026-04-20 01:06 | 8.51446 | -75.73516 | 33152 ft | 465 kts | 189° |
| 2026-04-20 01:07 | 8.48243 | -75.74011 | 33450 ft | 464 kts | 189° |
| 2026-04-20 01:07 | 8.45062 | -75.74502 | 33758 ft | 463 kts | 190° |
| 2026-04-20 01:07 | 8.41886 | -75.74989 | 34096 ft | 459 kts | 190° |
| 2026-04-20 01:07 | 8.38739 | -75.75472 | 34412 ft | 456 kts | 190° |
| 2026-04-20 01:08 | 8.35603 | -75.75951 | 34686 ft | 455 kts | 190° |
| 2026-04-20 01:08 | 8.32481 | -75.76432 | 34956 ft | 453 kts | 190° |
| 2026-04-20 01:08 | 8.29367 | -75.76916 | 35198 ft | 452 kts | 190° |
| 2026-04-20 01:08 | 8.26262 | -75.77399 | 35428 ft | 451 kts | 190° |
| 2026-04-20 01:09 | 8.23160 | -75.77883 | 35656 ft | 451 kts | 190° |
| 2026-04-20 01:09 | 8.20058 | -75.78365 | 35897 ft | 450 kts | 190° |
| 2026-04-20 01:09 | 8.16968 | -75.78842 | 36085 ft | 450 kts | 190° |
| 2026-04-20 01:09 | 8.13867 | -75.79316 | 36265 ft | 451 kts | 190° |
| 2026-04-20 01:10 | 8.10765 | -75.79789 | 36465 ft | 450 kts | 190° |
| 2026-04-20 01:10 | 8.04580 | -75.80736 | 36898 ft | 448 kts | 190° |
| 2026-04-20 01:10 | 8.01541 | -75.81194 | 36948 ft | 447 kts | 188° |
| 2026-04-20 01:11 | 7.95339 | -75.80967 | 36954 ft | 450 kts | 170° |
| 2026-04-20 01:11 | 7.89187 | -75.79733 | 36959 ft | 450 kts | 171° |
| 2026-04-20 01:12 | 7.83040 | -75.78504 | 36961 ft | 450 kts | 171° |
| 2026-04-20 01:12 | 7.76894 | -75.77279 | 36975 ft | 450 kts | 171° |
| 2026-04-20 01:13 | 7.70750 | -75.76063 | 36971 ft | 450 kts | 170° |
| 2026-04-20 01:13 | 7.64614 | -75.74842 | 37006 ft | 449 kts | 170° |
| 2026-04-20 01:14 | 7.58476 | -75.73623 | 37003 ft | 449 kts | 170° |
| 2026-04-20 01:14 | 7.52378 | -75.72411 | 37008 ft | 449 kts | 170° |
| 2026-04-20 01:15 | 7.46244 | -75.71192 | 37025 ft | 449 kts | 170° |
| 2026-04-20 01:15 | 7.40114 | -75.69975 | 37031 ft | 449 kts | 170° |
| 2026-04-20 01:16 | 7.33987 | -75.68758 | 37059 ft | 449 kts | 170° |
| 2026-04-20 01:16 | 7.27872 | -75.67548 | 37061 ft | 448 kts | 170° |
| 2026-04-20 01:17 | 7.21754 | -75.66331 | 37073 ft | 448 kts | 170° |
| 2026-04-20 01:17 | 7.15642 | -75.65109 | 37068 ft | 448 kts | 170° |
| 2026-04-20 01:18 | 7.09526 | -75.63897 | 37051 ft | 448 kts | 170° |
| 2026-04-20 01:18 | 7.03454 | -75.62693 | 37079 ft | 447 kts | 170° |
| 2026-04-20 01:19 | 6.97348 | -75.61476 | 37081 ft | 448 kts | 170° |
| 2026-04-20 01:19 | 6.91240 | -75.60264 | 37088 ft | 447 kts | 170° |
| 2026-04-20 01:20 | 6.85120 | -75.59053 | 37091 ft | 447 kts | 170° |
| 2026-04-20 01:20 | 6.79006 | -75.57844 | 37092 ft | 447 kts | 170° |
| 2026-04-20 01:21 | 6.72888 | -75.56635 | 37103 ft | 448 kts | 170° |
| 2026-04-20 01:21 | 6.66773 | -75.55417 | 37105 ft | 448 kts | 170° |
| 2026-04-20 01:22 | 6.60708 | -75.54215 | 37106 ft | 447 kts | 170° |
| 2026-04-20 01:22 | 6.54602 | -75.53010 | 37109 ft | 447 kts | 169° |
| 2026-04-20 01:23 | 6.48500 | -75.51802 | 37108 ft | 447 kts | 169° |
| 2026-04-20 01:23 | 6.42407 | -75.50595 | 37113 ft | 446 kts | 170° |
| 2026-04-20 01:24 | 6.36305 | -75.49387 | 37113 ft | 446 kts | 169° |
| 2026-04-20 01:24 | 6.30215 | -75.48180 | 37195 ft | 446 kts | 169° |
| 2026-04-20 01:25 | 6.27165 | -75.47578 | 37347 ft | 446 kts | 170° |
| 2026-04-20 01:25 | 6.24123 | -75.46977 | 37369 ft | 446 kts | 169° |
| 2026-04-20 01:25 | 6.18038 | -75.45770 | 37372 ft | 446 kts | 169° |
| 2026-04-20 01:26 | 6.11938 | -75.44568 | 37368 ft | 446 kts | 169° |
| 2026-04-20 01:26 | 6.05841 | -75.43367 | 37352 ft | 446 kts | 169° |
| 2026-04-20 01:27 | 5.99842 | -75.41759 | 37298 ft | 448 kts | 157° |
| 2026-04-20 01:27 | 5.94660 | -75.38313 | 37240 ft | 451 kts | 137° |
| 2026-04-20 01:28 | 5.90256 | -75.33803 | 37191 ft | 452 kts | 136° |
| 2026-04-20 01:28 | 5.85876 | -75.29314 | 36556 ft | 456 kts | 136° |
| 2026-04-20 01:29 | 5.83639 | -75.27025 | 35624 ft | 459 kts | 136° |
| 2026-04-20 01:29 | 5.81402 | -75.24735 | 34787 ft | 461 kts | 136° |
| 2026-04-20 01:29 | 5.79149 | -75.22429 | 33849 ft | 463 kts | 136° |
| 2026-04-20 01:29 | 5.76888 | -75.20110 | 32838 ft | 466 kts | 136° |
| 2026-04-20 01:30 | 5.74614 | -75.17776 | 31819 ft | 468 kts | 136° |
| 2026-04-20 01:30 | 5.72325 | -75.15435 | 30759 ft | 472 kts | 137° |
| 2026-04-20 01:30 | 5.69823 | -75.13290 | 29546 ft | 475 kts | 146° |
| 2026-04-20 01:30 | 5.67014 | -75.11554 | 28317 ft | 476 kts | 154° |
| 2026-04-20 01:31 | 5.63974 | -75.10243 | 27489 ft | 471 kts | 159° |
| 2026-04-20 01:31 | 5.60958 | -75.09025 | 26781 ft | 465 kts | 159° |
| 2026-04-20 01:31 | 5.57970 | -75.07797 | 26026 ft | 461 kts | 158° |
| 2026-04-20 01:31 | 5.55024 | -75.06573 | 25272 ft | 458 kts | 158° |
| 2026-04-20 01:32 | 5.52090 | -75.05348 | 24528 ft | 455 kts | 158° |
| 2026-04-20 01:32 | 5.49174 | -75.04132 | 23799 ft | 453 kts | 159° |
| 2026-04-20 01:32 | 5.46270 | -75.02930 | 23060 ft | 449 kts | 158° |
| 2026-04-20 01:32 | 5.43425 | -75.01759 | 22892 ft | 433 kts | 159° |
| 2026-04-20 01:33 | 5.40691 | -75.00636 | 22760 ft | 417 kts | 158° |
| 2026-04-20 01:33 | 5.38047 | -74.99550 | 22520 ft | 403 kts | 158° |
| 2026-04-20 01:33 | 5.35480 | -74.98480 | 22155 ft | 396 kts | 158° |
| 2026-04-20 01:33 | 5.32974 | -74.97418 | 21615 ft | 394 kts | 158° |
| 2026-04-20 01:34 | 5.30451 | -74.96342 | 21114 ft | 392 kts | 157° |
| 2026-04-20 01:34 | 5.27950 | -74.95275 | 20610 ft | 390 kts | 158° |
| 2026-04-20 01:34 | 5.25480 | -74.94222 | 19918 ft | 383 kts | 158° |
| 2026-04-20 01:34 | 5.23064 | -74.93117 | 19074 ft | 381 kts | 151° |
| 2026-04-20 01:35 | 5.20919 | -74.91585 | 18286 ft | 378 kts | 138° |
| 2026-04-20 01:35 | 5.19171 | -74.89636 | 17491 ft | 373 kts | 125° |
| 2026-04-20 01:35 | 5.17853 | -74.87437 | 17035 ft | 360 kts | 119° |
| 2026-04-20 01:35 | 5.16644 | -74.85305 | 16932 ft | 345 kts | 119° |
| 2026-04-20 01:36 | 5.15451 | -74.83217 | 16949 ft | 345 kts | 120° |
| 2026-04-20 01:36 | 5.14249 | -74.81142 | 16832 ft | 338 kts | 119° |
| 2026-04-20 01:36 | 5.13410 | -74.78963 | 16590 ft | 335 kts | 99° |
| 2026-04-20 01:36 | 5.13309 | -74.76621 | 16667 ft | 338 kts | 80° |
| 2026-04-20 01:37 | 5.13963 | -74.74409 | 16679 ft | 334 kts | 61° |
| 2026-04-20 01:37 | 5.15310 | -74.72541 | 16684 ft | 330 kts | 42° |
| 2026-04-20 01:37 | 5.16978 | -74.70964 | 16690 ft | 330 kts | 41° |
| 2026-04-20 01:37 | 5.18663 | -74.69384 | 16697 ft | 331 kts | 41° |
| 2026-04-20 01:38 | 5.20344 | -74.67803 | 16710 ft | 330 kts | 41° |
| 2026-04-20 01:38 | 5.22019 | -74.66226 | 16721 ft | 330 kts | 41° |
| 2026-04-20 01:38 | 5.23684 | -74.64634 | 16730 ft | 331 kts | 45° |
| 2026-04-20 01:38 | 5.25074 | -74.62786 | 16754 ft | 333 kts | 59° |
| 2026-04-20 01:39 | 5.26011 | -74.60691 | 16773 ft | 335 kts | 69° |
| 2026-04-20 01:39 | 5.26818 | -74.58498 | 16787 ft | 335 kts | 68° |
| 2026-04-20 01:39 | 5.27635 | -74.56309 | 16805 ft | 334 kts | 68° |
| 2026-04-20 01:39 | 5.28456 | -74.54123 | 16821 ft | 335 kts | 67° |
| 2026-04-20 01:40 | 5.29281 | -74.51933 | 16812 ft | 335 kts | 68° |
| 2026-04-20 01:40 | 5.30102 | -74.49746 | 16843 ft | 335 kts | 67° |
| 2026-04-20 01:40 | 5.30594 | -74.48281 | 16844 ft | 336 kts | 75° |
| 2026-04-20 01:40 | 5.30836 | -74.45952 | 16613 ft | 337 kts | 94° |
| 2026-04-20 01:41 | 5.30287 | -74.43680 | 16370 ft | 337 kts | 114° |
| 2026-04-20 01:41 | 5.28986 | -74.41746 | 16125 ft | 336 kts | 135° |
| 2026-04-20 01:41 | 5.27097 | -74.40399 | 15913 ft | 334 kts | 156° |
| 2026-04-20 01:41 | 5.24871 | -74.39791 | 15675 ft | 331 kts | 176° |
| 2026-04-20 01:42 | 5.22610 | -74.39836 | 15445 ft | 329 kts | 185° |
| 2026-04-20 01:42 | 5.20324 | -74.39965 | 15212 ft | 328 kts | 185° |
| 2026-04-20 01:42 | 5.18045 | -74.40094 | 14987 ft | 327 kts | 185° |
| 2026-04-20 01:42 | 5.15783 | -74.40222 | 14851 ft | 326 kts | 185° |
| 2026-04-20 01:43 | 5.13503 | -74.40350 | 14892 ft | 328 kts | 186° |
| 2026-04-20 01:43 | 5.11225 | -74.40478 | 14891 ft | 328 kts | 186° |
| 2026-04-20 01:43 | 5.08938 | -74.40604 | 14884 ft | 328 kts | 185° |
| 2026-04-20 01:43 | 5.06663 | -74.40727 | 14887 ft | 327 kts | 186° |
| 2026-04-20 01:44 | 5.04385 | -74.40850 | 14892 ft | 328 kts | 185° |
| 2026-04-20 01:44 | 5.02104 | -74.40976 | 14885 ft | 329 kts | 185° |
| 2026-04-20 01:44 | 4.99811 | -74.41105 | 14886 ft | 329 kts | 184° |
| 2026-04-20 01:44 | 4.97522 | -74.41233 | 14894 ft | 328 kts | 186° |
| 2026-04-20 01:45 | 4.95283 | -74.41356 | 14893 ft | 316 kts | 185° |
| 2026-04-20 01:45 | 4.93119 | -74.41452 | 14901 ft | 308 kts | 181° |
| 2026-04-20 01:45 | 4.91007 | -74.41181 | 14912 ft | 306 kts | 167° |
| 2026-04-20 01:45 | 4.88997 | -74.40418 | 14706 ft | 310 kts | 154° |
| 2026-04-20 01:46 | 4.87087 | -74.39418 | 14489 ft | 310 kts | 154° |
| 2026-04-20 01:46 | 4.85175 | -74.38420 | 14272 ft | 310 kts | 154° |
| 2026-04-20 01:46 | 4.83283 | -74.37438 | 14066 ft | 309 kts | 154° |
| 2026-04-20 01:46 | 4.81382 | -74.36454 | 13824 ft | 306 kts | 153° |
| 2026-04-20 01:47 | 4.79495 | -74.35476 | 13696 ft | 304 kts | 153° |
| 2026-04-20 01:47 | 4.77659 | -74.34525 | 13718 ft | 291 kts | 153° |
| 2026-04-20 01:47 | 4.75902 | -74.33564 | 13727 ft | 285 kts | 149° |
| 2026-04-20 01:47 | 4.74205 | -74.32560 | 13725 ft | 282 kts | 148° |
| 2026-04-20 01:48 | 4.72525 | -74.31536 | 13733 ft | 281 kts | 148° |
| 2026-04-20 01:48 | 4.70866 | -74.30517 | 13739 ft | 275 kts | 148° |
| 2026-04-20 01:48 | 4.69251 | -74.29528 | 13749 ft | 270 kts | 148° |
| 2026-04-20 01:48 | 4.67726 | -74.28450 | 13740 ft | 267 kts | 136° |
| 2026-04-20 01:49 | 4.66379 | -74.27200 | 13757 ft | 266 kts | 136° |
| 2026-04-20 01:49 | 4.64997 | -74.25932 | 13751 ft | 266 kts | 136° |
| 2026-04-20 01:49 | 4.63646 | -74.24696 | 13758 ft | 267 kts | 135° |
| 2026-04-20 01:49 | 4.62465 | -74.23258 | 13533 ft | 271 kts | 123° |
| 2026-04-20 01:50 | 4.61377 | -74.21700 | 13167 ft | 274 kts | 123° |
| 2026-04-20 01:50 | 4.60292 | -74.20115 | 12789 ft | 276 kts | 122° |
| 2026-04-20 01:50 | 4.59210 | -74.18527 | 12429 ft | 278 kts | 123° |
| 2026-04-20 01:50 | 4.58148 | -74.16911 | 12055 ft | 276 kts | 115° |
| 2026-04-20 01:51 | 4.57590 | -74.15127 | 11694 ft | 263 kts | 93° |
| 2026-04-20 01:51 | 4.57682 | -74.13350 | 11355 ft | 249 kts | 73° |
| 2026-04-20 01:51 | 4.58301 | -74.11809 | 11057 ft | 237 kts | 56° |
| 2026-04-20 01:51 | 4.59316 | -74.10586 | 10788 ft | 224 kts | 38° |
| 2026-04-20 01:52 | 4.60588 | -74.09758 | 10485 ft | 208 kts | 22° |
| 2026-04-20 01:52 | 4.61931 | -74.09356 | 10207 ft | 195 kts | 7° |
| 2026-04-20 01:52 | 4.63241 | -74.09317 | 9932 ft | 181 kts | 353° |
| 2026-04-20 01:52 | 4.64427 | -74.09581 | 9702 ft | 168 kts | 341° |
| 2026-04-20 01:53 | 4.65444 | -74.10072 | 9493 ft | 159 kts | 329° |
| 2026-04-20 01:53 | 4.66299 | -74.10742 | 9266 ft | 154 kts | 316° |
| 2026-04-20 01:53 | 4.66978 | -74.11543 | 9063 ft | 152 kts | 307° |
| 2026-04-20 01:53 | 4.67614 | -74.12388 | 8856 ft | 152 kts | 308° |
| 2026-04-20 01:54 | 4.68261 | -74.13224 | 8625 ft | 153 kts | 307° |
| 2026-04-20 01:54 | 4.68887 | -74.14062 | 8424 ft | 151 kts | 308° |
| 2026-04-20 01:54 | 4.69484 | -74.14849 | 8363 ft | 118 kts | 307° |
| 2026-04-20 01:54 | 4.69800 | -74.15263 | 8365 ft | 40 kts | 307° |
| 2026-04-20 01:55 | 4.69969 | -74.15488 | 8365 ft | 26 kts | 307° |
| 2026-04-20 01:55 | 4.70068 | -74.15510 | 8364 ft | 13 kts | 32° |
| 2026-04-20 01:55 | 4.70135 | -74.15459 | 8365 ft | 11 kts | 36° |
| 2026-04-20 01:55 | 4.70169 | -74.15405 | 8365 ft | 8 kts | 94° |
| 2026-04-20 01:56 | 4.70149 | -74.15355 | 8366 ft | 10 kts | 122° |
| 2026-04-20 01:56 | 4.70096 | -74.15295 | 8366 ft | 11 kts | 130° |
| 2026-04-20 01:56 | 4.70057 | -74.15244 | 8366 ft | 8 kts | 126° |
| 2026-04-20 01:56 | 4.70000 | -74.15166 | 8366 ft | 21 kts | 127° |
| 2026-04-20 01:57 | 4.69911 | -74.15049 | 8366 ft | 21 kts | 127° |
| 2026-04-20 01:57 | 4.69819 | -74.14930 | 8366 ft | 22 kts | 127° |
| 2026-04-20 01:57 | 4.69759 | -74.14813 | 8365 ft | 16 kts | 70° |
| 2026-04-20 01:57 | 4.69844 | -74.14740 | 8366 ft | 17 kts | 36° |
| 2026-04-20 01:58 | 4.69939 | -74.14668 | 8366 ft | 17 kts | 37° |
| 2026-04-20 01:58 | 4.70034 | -74.14596 | 8366 ft | 13 kts | 47° |
| 2026-04-20 01:58 | 4.70009 | -74.14530 | 8366 ft | 10 kts | 128° |
| 2026-04-20 01:58 | 4.69971 | -74.14481 | 8366 ft | 8 kts | 128° |
| 2026-04-20 01:59 | 4.69933 | -74.14478 | 8366 ft | 5 kts | 209° |
| 2026-04-20 01:59 | 4.69909 | -74.14491 | 8366 ft | 3 kts | 206° |
| 2026-04-20 01:59 | 4.69899 | -74.14496 | 8366 ft | 0 kts | 208° |